Time;durP1;ratioP1;P1;durP2;ratioP2;P2;SDS_P1;SDS_P2;PMS_P1;PMS_P2;Temp;Humidity;BMP_temperature;BMP_pressure;BME280_temperature;BME280_humidity;BME280_pressure;Samples;Min_cycle;Max_cycle;Signal;HPM_P1;HPM_P2
2023/05/17 00:01:26;;;;;;;16.58;10.75;;;;;;;10.38;78.54;100212.13;30860147;28;103478;-68
2023/05/17 00:16:27;;;;;;;15.55;11.02;;;;;;;10.32;78.18;100234.91;30859651;28;98386;-68
2023/05/17 00:31:27;;;;;;;13.43;9.15;;;;;;;10.28;78.68;100227.44;30858902;28;96725;-68
2023/05/17 00:46:27;;;;;;;12.77;9.30;;;;;;;10.20;78.45;100235.38;30856854;28;97060;-68
2023/05/17 01:01:28;;;;;;;12.55;10.07;;;;;;;10.13;78.49;100220.09;30855318;28;97381;-68
2023/05/17 01:16:32;;;;;;;21.53;11.20;;;;;;;10.04;78.79;100226.41;30855152;28;96685;-68
2023/05/17 01:31:33;;;;;;;18.40;11.47;;;;;;;9.93;79.35;100229.41;30853830;28;97675;-68
2023/05/17 01:46:36;;;;;;;15.50;10.38;;;;;;;9.83;79.54;100246.34;30853324;28;96723;-69
2023/05/17 02:01:38;;;;;;;15.93;9.23;;;;;;;9.79;79.21;100234.38;30860669;28;96734;-67
2023/05/17 02:16:38;;;;;;;17.27;9.53;;;;;;;9.77;79.51;100249.69;30871627;28;97484;-68
2023/05/17 02:31:39;;;;;;;14.27;8.60;;;;;;;9.72;79.44;100236.03;30869630;28;110345;-68
2023/05/17 02:46:39;;;;;;;12.25;7.05;;;;;;;9.63;79.16;100239.66;30868751;28;97354;-68
2023/05/17 03:01:40;;;;;;;7.53;5.85;;;;;;;9.49;79.02;100259.75;30866508;28;96714;-68
2023/05/17 03:16:41;;;;;;;8.03;5.47;;;;;;;9.40;78.77;100288.13;30864398;28;96559;-68
2023/05/17 03:31:41;;;;;;;7.93;4.10;;;;;;;9.30;78.33;100309.50;30863001;28;96625;-68
2023/05/17 03:46:42;;;;;;;9.25;4.65;;;;;;;9.25;78.04;100326.94;30861550;28;96992;-69
2023/05/17 04:01:42;;;;;;;6.10;3.70;;;;;;;9.32;77.67;100335.94;30860379;28;97828;-68
2023/05/17 04:16:43;;;;;;;6.25;3.90;;;;;;;9.41;77.43;100345.63;30857946;28;96784;-68
2023/05/17 04:31:43;;;;;;;7.93;3.75;;;;;;;9.53;77.06;100366.63;30854855;28;104747;-68
2023/05/17 04:46:44;;;;;;;7.15;2.90;;;;;;;9.64;76.49;100385.78;30855800;28;96687;-68
2023/05/17 05:01:44;;;;;;;4.93;3.03;;;;;;;9.92;75.15;100368.78;30853090;28;96761;-69
2023/05/17 05:16:45;;;;;;;5.90;2.65;;;;;;;10.29;73.66;100388.81;30852927;28;109102;-69
2023/05/17 05:31:45;;;;;;;5.60;2.72;;;;;;;10.97;73.32;100413.56;30853512;28;99455;-68
2023/05/17 05:46:45;;;;;;;6.95;2.10;;;;;;;11.46;70.97;100423.34;30870145;28;97431;-69
2023/05/17 06:01:46;;;;;;;8.00;2.03;;;;;;;11.82;68.94;100447.75;30870231;28;97109;-69
2023/05/17 06:16:47;;;;;;;6.07;1.73;;;;;;;12.19;67.67;100462.31;30869748;28;96754;-69
2023/05/17 06:31:47;;;;;;;5.43;1.80;;;;;;;12.49;66.20;100456.31;30868460;28;96827;-69
2023/05/17 06:46:48;;;;;;;3.30;1.75;;;;;;;12.92;64.72;100475.41;30865659;28;97510;-69
2023/05/17 07:01:48;;;;;;;8.30;2.00;;;;;;;12.78;63.87;100514.44;30863245;28;96731;-69
2023/05/17 07:16:48;;;;;;;7.68;2.33;;;;;;;12.45;63.32;100522.66;30863590;28;96770;-69
2023/05/17 07:31:49;;;;;;;9.35;2.55;;;;;;;12.52;62.50;100523.59;30860894;28;96700;-69
2023/05/17 07:46:49;;;;;;;5.82;2.38;;;;;;;12.70;62.24;100546.56;30858906;28;96736;-69
2023/05/17 08:01:50;;;;;;;6.70;2.67;;;;;;;12.84;61.71;100556.50;30858607;28;96775;-69
2023/05/17 08:16:50;;;;;;;9.07;2.75;;;;;;;13.10;60.38;100543.81;30858793;28;96621;-70
2023/05/17 08:31:55;;;;;;;9.30;2.63;;;;;;;13.12;59.25;100533.75;30856690;28;97290;-70
2023/05/17 08:46:58;;;;;;;7.67;3.10;;;;;;;13.30;58.40;100536.13;30856196;28;100247;-69
2023/05/17 09:01:59;;;;;;;;;;;;;;;13.47;57.50;100547.56;30854464;28;96741;-70
2023/05/17 09:17:00;;;;;;;9.30;2.93;;;;;;;13.58;56.18;100539.09;30853110;28;96797;-69
2023/05/17 09:32:19;;;;;;;14.67;3.63;;;;;;;13.80;55.97;100549.94;30851078;28;97187;-70
2023/05/17 09:47:23;;;;;;;9.77;2.60;;;;;;;14.09;54.25;100550.97;30851066;28;97077;-70
2023/05/17 10:02:29;;;;;;;9.73;3.53;;;;;;;14.26;52.98;100557.00;30850016;28;97314;-70
2023/05/17 10:17:31;;;;;;;9.47;2.80;;;;;;;14.02;52.67;100558.91;30852421;28;96624;-70
2023/05/17 10:32:32;;;;;;;8.40;2.63;;;;;;;14.32;52.53;100580.34;30867782;28;97405;-70
2023/05/17 10:47:32;;;;;;;9.93;3.10;;;;;;;14.28;52.38;100576.38;30866618;28;97359;-70
2023/05/17 11:02:38;;;;;;;6.63;2.20;;;;;;;14.41;51.81;100579.25;30865317;28;96852;-70
2023/05/17 11:17:41;;;;;;;11.80;2.27;;;;;;;14.38;51.65;100579.63;30864696;28;97683;-70
2023/05/17 11:32:49;;;;;;;4.87;2.00;;;;;;;14.39;50.89;100571.41;30861891;28;96851;-70
2023/05/17 11:47:51;;;;;;;6.90;1.90;;;;;;;14.09;50.77;100570.53;30861953;28;96738;-70
2023/05/17 12:02:51;;;;;;;7.90;2.27;;;;;;;14.11;51.17;100573.88;30858735;28;97518;-69
2023/05/17 12:17:53;;;;;;;7.07;2.33;;;;;;;14.16;51.50;100576.84;30857858;28;97364;-69
2023/05/17 12:32:54;;;;;;;5.93;1.63;;;;;;;14.22;51.55;100586.00;30855326;28;96752;-69
2023/05/17 12:47:54;;;;;;;5.65;2.60;;;;;;;14.04;51.28;100599.75;30852276;28;97589;-70
2023/05/17 13:02:55;;;;;;;4.57;1.92;;;;;;;13.70;52.27;100603.75;30852052;28;97342;-69
2023/05/17 13:17:55;;;;;;;6.65;2.35;;;;;;;13.75;52.22;100616.59;30851978;28;96927;-68
2023/05/17 13:32:56;;;;;;;4.80;2.35;;;;;;;13.45;52.89;100638.75;30851704;28;96720;-69
2023/05/17 13:47:56;;;;;;;8.30;2.42;;;;;;;13.84;52.40;100648.47;30850904;28;96750;-69
2023/05/17 14:02:56;;;;;;;4.97;2.00;;;;;;;13.46;52.39;100669.81;30865642;28;97419;-69
2023/05/17 14:17:57;;;;;;;7.47;2.20;;;;;;;13.60;52.24;100695.03;30868470;28;103711;-70
2023/05/17 14:32:58;;;;;;;7.00;2.40;;;;;;;13.89;51.85;100682.75;30867912;28;97315;-70
2023/05/17 14:47:58;;;;;;;11.03;2.73;;;;;;;13.99;51.51;100687.84;30866426;28;96791;-68
2023/05/17 15:02:58;;;;;;;8.65;3.65;;;;;;;14.14;51.61;100690.56;30863133;28;111673;-69
2023/05/17 15:17:59;;;;;;;6.70;2.47;;;;;;;14.09;51.08;100709.84;30864990;28;105046;-69
2023/05/17 15:32:59;;;;;;;5.82;2.35;;;;;;;14.00;50.62;100724.34;30861010;28;97230;-69
2023/05/17 15:48:00;;;;;;;6.45;2.50;;;;;;;13.79;50.88;100725.84;30859423;28;97462;-69
2023/05/17 16:03:01;;;;;;;7.72;2.35;;;;;;;13.60;50.99;100737.84;30856978;28;96653;-73
2023/05/17 16:18:01;;;;;;;8.52;2.38;;;;;;;13.34;50.90;100738.09;30856261;28;98353;-75
2023/05/17 16:33:01;;;;;;;6.78;2.70;;;;;;;13.17;50.89;100764.13;30854209;28;96733;-78
2023/05/17 16:48:02;;;;;;;8.73;3.30;;;;;;;13.01;51.16;100778.38;30853389;28;97207;-72
2023/05/17 17:03:02;;;;;;;9.45;2.83;;;;;;;12.78;51.76;100781.78;30851798;28;96784;-67
2023/05/17 17:18:02;;;;;;;11.55;3.28;;;;;;;12.58;52.39;100777.81;30852206;28;96709;-70
2023/05/17 17:33:03;;;;;;;13.50;5.00;;;;;;;12.46;53.31;100786.16;30862909;28;96692;-67
2023/05/17 17:48:03;;;;;;;10.38;3.40;;;;;;;12.24;53.36;100805.53;30872406;28;101411;-69
2023/05/17 18:03:04;;;;;;;11.63;3.53;;;;;;;11.99;53.86;100826.88;30865244;28;97615;-65
2023/05/17 18:18:04;;;;;;;9.57;4.10;;;;;;;11.66;54.45;100829.44;30737427;28;97048;-64
2023/05/17 18:33:06;;;;;;;6.93;3.08;;;;;;;11.38;54.66;100848.31;30736489;28;113004;-69
2023/05/17 18:48:06;;;;;;;8.50;3.50;;;;;;;11.14;54.61;100857.84;30735455;28;96824;-66
2023/05/17 19:03:06;;;;;;;7.25;3.17;;;;;;;10.92;55.11;100911.69;30736543;28;97284;-67
2023/05/17 19:18:07;;;;;;;9.95;2.58;;;;;;;10.77;55.40;100895.41;30733458;28;103181;-66
2023/05/17 19:33:07;;;;;;;8.10;2.25;;;;;;;10.65;56.09;100918.81;30732499;28;96724;-66
2023/05/17 19:48:07;;;;;;;6.65;2.90;;;;;;;10.55;55.99;100904.72;30731438;28;97349;-70
2023/05/17 20:03:08;;;;;;;10.70;3.38;;;;;;;10.43;55.94;100906.75;30729124;28;97279;-69
2023/05/17 20:18:08;;;;;;;8.02;3.25;;;;;;;10.38;56.10;100906.41;30729185;28;96796;-66
2023/05/17 20:33:08;;;;;;;9.48;3.22;;;;;;;10.37;56.11;100924.19;30838294;28;97486;-72
2023/05/17 20:48:09;;;;;;;10.57;3.05;;;;;;;10.28;55.65;100938.41;30843412;28;103775;-69
2023/05/17 21:03:09;;;;;;;8.07;3.05;;;;;;;10.16;56.31;100943.91;30853609;28;97649;-66
2023/05/17 21:18:10;;;;;;;10.68;3.65;;;;;;;10.02;56.55;100947.09;30844553;28;97062;-72
2023/05/17 21:33:10;;;;;;;18.45;4.03;;;;;;;9.87;56.97;100930.75;30809695;28;97488;-69
2023/05/17 21:48:11;;;;;;;9.98;3.35;;;;;;;9.86;57.32;100944.22;30833199;28;96983;-68
2023/05/17 22:03:11;;;;;;;8.90;3.33;;;;;;;9.81;57.05;100950.81;30845709;28;97355;-71
2023/05/17 22:18:12;;;;;;;12.85;3.15;;;;;;;9.75;57.61;100940.75;30852586;28;106880;-70
2023/05/17 22:33:12;;;;;;;9.93;3.37;;;;;;;9.58;57.64;100955.66;30869299;28;96968;-71
2023/05/17 22:48:13;;;;;;;10.43;3.63;;;;;;;9.37;58.29;100971.81;30870003;28;96606;-71
2023/05/17 23:03:13;;;;;;;11.98;4.35;;;;;;;9.08;59.13;100988.63;30868216;28;97348;-70
2023/05/17 23:18:14;;;;;;;7.60;4.40;;;;;;;8.86;59.95;101002.19;30866439;28;96681;-67
2023/05/17 23:33:15;;;;;;;10.87;4.63;;;;;;;8.67;60.33;101003.88;30864898;28;96694;-69
2023/05/17 23:48:19;;;;;;;12.35;4.53;;;;;;;8.53;61.44;101013.09;30863836;28;97557;-67
